Time;durP1;ratioP1;P1;durP2;ratioP2;P2;SDS_P1;SDS_P2;PMS_P1;PMS_P2;Temp;Humidity;BMP_temperature;BMP_pressure;BME280_temperature;BME280_humidity;BME280_pressure;Samples;Min_cycle;Max_cycle;Signal;HPM_P1;HPM_P2
2023/09/28 00:02:48;;;;;;;6.10;5.60;;;21.10;99.90;;;;;;4975233;28;20419;-66
2023/09/28 00:05:15;;;;;;;6.20;5.70;;;21.10;99.90;;;;;;4974990;28;20428;-66
2023/09/28 00:07:42;;;;;;;6.27;5.87;;;21.00;99.90;;;;;;4974754;28;20431;-65
2023/09/28 00:10:13;;;;;;;6.40;5.90;;;21.10;99.90;;;;;;4975340;28;20479;-66
2023/09/28 00:12:40;;;;;;;6.17;5.77;;;21.20;99.90;;;;;;4974405;28;20420;-66
2023/09/28 00:15:08;;;;;;;5.53;5.23;;;21.20;99.90;;;;;;4974854;28;20431;-66
2023/09/28 00:17:34;;;;;;;6.40;5.90;;;21.20;99.90;;;;;;4975508;28;20416;-66
2023/09/28 00:20:00;;;;;;;5.93;5.53;;;21.20;99.90;;;;;;4974465;28;20499;-66
2023/09/28 00:22:26;;;;;;;7.73;6.53;;;21.30;99.90;;;;;;4975002;28;20522;-66
2023/09/28 00:24:52;;;;;;;6.73;6.20;;;21.30;99.90;;;;;;4974810;28;20187;-66
2023/09/28 00:27:18;;;;;;;6.20;5.80;;;21.30;99.90;;;;;;4957480;28;20478;-66
2023/09/28 00:29:46;;;;;;;6.43;6.03;;;21.40;99.90;;;;;;4957135;28;20439;-65
2023/09/28 00:32:12;;;;;;;6.00;5.63;;;21.40;99.90;;;;;;4975332;28;20211;-66
2023/09/28 00:34:38;;;;;;;6.50;5.93;;;21.40;99.90;;;;;;4973846;28;20431;-62
2023/09/28 00:37:04;;;;;;;6.40;6.00;;;21.40;99.90;;;;;;4974508;28;20498;-66
2023/09/28 00:39:31;;;;;;;5.70;5.40;;;21.40;99.90;;;;;;4974785;28;20436;-66
2023/09/28 00:41:57;;;;;;;6.30;5.90;;;21.40;99.90;;;;;;4974413;28;20200;-66
2023/09/28 00:44:23;;;;;;;4.97;4.67;;;21.40;99.90;;;;;;4974536;28;20767;-66
2023/09/28 00:46:50;;;;;;;5.73;5.30;;;21.40;99.90;;;;;;4973976;28;20177;-65
2023/09/28 00:49:17;;;;;;;5.13;4.83;;;21.40;99.90;;;;;;4974728;28;20439;-66
2023/09/28 00:51:47;;;;;;;5.87;5.43;;;21.40;99.90;;;;;;4974166;28;20486;-66
2023/09/28 00:54:13;;;;;;;5.87;5.47;;;21.40;99.90;;;;;;4974963;28;20419;-66
2023/09/28 00:56:40;;;;;;;5.47;5.17;;;21.40;99.90;;;;;;4973919;28;20416;-64
2023/09/28 00:59:06;;;;;;;5.33;4.93;;;21.30;99.90;;;;;;4974130;28;21005;-66
2023/09/28 01:01:32;;;;;;;5.53;5.20;;;21.30;99.90;;;;;;4974119;28;20470;-66
2023/09/28 01:04:05;;;;;;;5.70;5.30;;;21.40;99.90;;;;;;4956641;28;20931;-66
2023/09/28 01:06:33;;;;;;;5.83;5.43;;;21.30;99.90;;;;;;4974140;28;20824;-66
2023/09/28 01:08:59;;;;;;;5.43;5.03;;;21.30;99.90;;;;;;4973225;28;20436;-66
2023/09/28 01:11:25;;;;;;;6.10;5.70;;;21.30;99.90;;;;;;4974117;28;20778;-66
2023/09/28 01:13:52;;;;;;;5.03;4.73;;;21.30;99.90;;;;;;4973582;28;20184;-66
2023/09/28 01:16:19;;;;;;;5.83;5.50;;;21.30;99.90;;;;;;4973810;28;20431;-65
2023/09/28 01:18:45;;;;;;;5.93;5.53;;;21.30;99.90;;;;;;4972811;28;20427;-64
2023/09/28 01:21:11;;;;;;;5.87;5.30;;;21.20;99.90;;;;;;4974095;28;20819;-66
2023/09/28 01:23:37;;;;;;;6.33;5.97;;;21.20;99.90;;;;;;4973689;28;20423;-66
2023/09/28 01:26:03;;;;;;;5.83;5.43;;;21.20;99.90;;;;;;4973755;28;20176;-65
2023/09/28 01:28:29;;;;;;;6.27;5.77;;;21.10;99.90;;;;;;4973462;28;20558;-65
2023/09/28 01:30:56;;;;;;;6.50;6.10;;;21.10;99.90;;;;;;4973160;28;20184;-65
2023/09/28 01:33:22;;;;;;;5.47;5.17;;;21.10;99.90;;;;;;4956604;28;20446;-64
2023/09/28 01:35:47;;;;;;;5.47;5.17;;;21.10;99.90;;;;;;4970985;28;20436;-65
2023/09/28 01:38:35;;;;;;;5.53;5.03;;;21.00;99.90;;;;;;4973002;28;20171;-65
2023/09/28 01:41:01;;;;;;;5.70;5.40;;;21.00;99.90;;;;;;4973459;28;20211;-65
2023/09/28 01:43:27;;;;;;;4.83;4.47;;;21.00;99.90;;;;;;4973587;28;20833;-65
2023/09/28 01:45:53;;;;;;;6.03;5.37;;;21.00;99.90;;;;;;4972403;28;20431;-65
2023/09/28 01:48:18;;;;;;;5.00;4.70;;;21.00;99.90;;;;;;4973613;28;20232;-65
2023/09/28 01:50:44;;;;;;;5.70;5.20;;;20.90;99.90;;;;;;4961825;28;20177;-64
2023/09/28 01:53:10;;;;;;;5.50;5.20;;;21.00;99.90;;;;;;4954739;29;20180;-65
2023/09/28 01:55:36;;;;;;;5.23;4.83;;;21.00;99.90;;;;;;4972012;28;20176;-65
2023/09/28 01:58:04;;;;;;;4.87;4.60;;;21.00;99.90;;;;;;4973103;28;20183;-65
2023/09/28 02:00:30;;;;;;;6.63;6.13;;;21.00;99.90;;;;;;4973800;28;20468;-65
2023/09/28 02:02:56;;;;;;;5.53;5.20;;;21.00;99.90;;;;;;4955450;28;20439;-65
2023/09/28 02:05:22;;;;;;;5.70;5.10;;;21.00;99.90;;;;;;4973618;28;20456;-65
2023/09/28 02:07:49;;;;;;;6.27;5.67;;;21.00;99.90;;;;;;4972981;28;20450;-66
2023/09/28 02:10:15;;;;;;;6.07;5.67;;;21.00;99.90;;;;;;4973386;28;20435;-66
2023/09/28 02:12:43;;;;;;;5.43;5.03;;;21.00;99.90;;;;;;4973270;28;20522;-65
2023/09/28 02:15:10;;;;;;;5.60;5.20;;;21.00;99.90;;;;;;4973720;28;20412;-66
2023/09/28 02:17:38;;;;;;;5.70;5.30;;;21.00;99.90;;;;;;4973370;28;20446;-66
2023/09/28 02:20:11;;;;;;;6.43;5.83;;;21.00;99.90;;;;;;4972602;28;20808;-65
2023/09/28 02:22:43;;;;;;;5.10;4.80;;;21.00;99.90;;;;;;4973354;28;20462;-66
2023/09/28 02:25:20;;;;;;;4.77;4.47;;;21.00;99.90;;;;;;4973097;28;20491;-66
2023/09/28 02:27:47;;;;;;;5.83;5.33;;;21.00;99.90;;;;;;4972562;28;20467;-65
2023/09/28 02:30:17;;;;;;;5.40;5.00;;;21.00;99.90;;;;;;4973610;28;20431;-65
2023/09/28 02:32:46;;;;;;;4.97;4.67;;;21.10;99.90;;;;;;4972963;28;20435;-66
2023/09/28 02:35:16;;;;;;;5.03;4.70;;;21.00;99.90;;;;;;4972843;28;20432;-67
2023/09/28 02:37:44;;;;;;;5.37;5.07;;;21.00;99.90;;;;;;4968261;28;20439;-66
2023/09/28 02:40:12;;;;;;;5.53;5.23;;;21.10;99.90;;;;;;4973181;28;20459;-66
2023/09/28 02:42:38;;;;;;;5.37;4.93;;;21.10;99.90;;;;;;4972629;28;20478;-66
2023/09/28 02:45:11;;;;;;;5.67;4.90;;;21.10;99.90;;;;;;4972270;28;20432;-66
2023/09/28 02:47:41;;;;;;;5.77;5.37;;;21.10;99.90;;;;;;4973507;28;20401;-66
2023/09/28 02:50:11;;;;;;;5.57;5.23;;;21.10;99.90;;;;;;4967430;28;20420;-66
2023/09/28 02:52:41;;;;;;;7.07;5.27;;;21.20;99.90;;;;;;4972533;28;20427;-65
2023/09/28 02:55:12;;;;;;;5.90;5.50;;;21.20;99.90;;;;;;4972457;28;20447;-65
2023/09/28 02:57:38;;;;;;;5.13;4.83;;;21.20;99.90;;;;;;4959135;28;20420;-66
2023/09/28 03:00:39;;;;;;;6.00;5.40;;;21.20;99.90;;;;;;4975655;28;20470;-65
2023/09/28 03:03:00;;;;;;;6.33;5.93;;;21.20;99.90;;;;;;4973259;28;20427;-65
2023/09/28 03:05:27;;;;;;;5.23;4.73;;;21.30;99.90;;;;;;4976712;28;20554;-65
2023/09/28 03:07:53;;;;;;;5.50;5.20;;;21.30;99.90;;;;;;4975707;28;20553;-65
2023/09/28 03:10:19;;;;;;;5.70;5.30;;;21.30;99.90;;;;;;4976457;28;20522;-65
2023/09/28 03:12:46;;;;;;;5.53;5.13;;;21.20;99.90;;;;;;4976726;28;20177;-65
2023/09/28 03:15:13;;;;;;;6.00;5.60;;;21.20;99.90;;;;;;4975150;28;20457;-66
2023/09/28 03:17:41;;;;;;;6.00;5.60;;;21.30;99.90;;;;;;4975672;28;20519;-65
2023/09/28 03:20:17;;;;;;;6.60;6.10;;;21.30;99.90;;;;;;4975633;28;20464;-66
2023/09/28 03:22:49;;;;;;;6.57;6.10;;;21.20;99.90;;;;;;4976545;28;20423;-66
2023/09/28 03:25:17;;;;;;;6.10;5.67;;;21.20;99.90;;;;;;4975775;28;20428;-66
2023/09/28 03:27:48;;;;;;;5.73;5.37;;;21.20;99.90;;;;;;4976168;28;20466;-66
2023/09/28 03:30:14;;;;;;;5.67;5.17;;;21.20;99.90;;;;;;4975946;28;20435;-66
2023/09/28 03:32:40;;;;;;;9.63;6.40;;;21.20;99.90;;;;;;4974871;28;20419;-66
2023/09/28 03:35:10;;;;;;;5.70;5.40;;;21.20;99.90;;;;;;4957947;28;20830;-66
2023/09/28 03:37:36;;;;;;;5.90;5.50;;;21.10;99.90;;;;;;4976255;28;20416;-66
2023/09/28 03:40:10;;;;;;;6.37;5.87;;;21.10;99.90;;;;;;4974620;28;20508;-66
2023/09/28 03:42:40;;;;;;;5.77;5.30;;;21.10;99.90;;;;;;4975900;28;20543;-66
2023/09/28 03:45:10;;;;;;;6.53;6.13;;;21.10;99.90;;;;;;4975052;28;20761;-66
2023/09/28 03:47:40;;;;;;;6.33;5.00;;;21.10;99.90;;;;;;4975360;28;20825;-66
2023/09/28 03:50:09;;;;;;;4.90;4.60;;;21.10;99.90;;;;;;4975254;28;20424;-66
2023/09/28 03:52:37;;;;;;;6.97;6.57;;;21.10;99.90;;;;;;4975957;28;20434;-67
2023/09/28 03:55:04;;;;;;;5.93;5.63;;;21.10;99.90;;;;;;4974938;28;20423;-66
2023/09/28 03:57:30;;;;;;;5.97;5.47;;;21.10;99.90;;;;;;4975729;28;20426;-67
2023/09/28 03:59:56;;;;;;;7.40;6.80;;;21.00;99.90;;;;;;4975247;28;20527;-65
2023/09/28 04:02:27;;;;;;;6.00;5.60;;;21.00;99.90;;;;;;4975539;28;20434;-66
2023/09/28 04:04:52;;;;;;;5.97;5.57;;;21.00;99.90;;;;;;4975201;28;20400;-67
2023/09/28 04:07:18;;;;;;;6.40;5.90;;;21.00;99.90;;;;;;4940377;28;20491;-65
2023/09/28 04:09:44;;;;;;;7.60;5.70;;;21.10;99.90;;;;;;4961481;28;20671;-67
2023/09/28 04:12:10;;;;;;;8.27;6.13;;;21.00;99.90;;;;;;4975101;28;20556;-67
2023/09/28 04:14:36;;;;;;;5.07;4.27;;;21.00;99.90;;;;;;4974107;28;20180;-65
2023/09/28 04:17:02;;;;;;;7.43;6.93;;;21.00;99.90;;;;;;4974023;28;20490;-66
2023/09/28 04:19:27;;;;;;;6.93;6.53;;;21.00;99.90;;;;;;4975139;28;20180;-67
2023/09/28 04:21:53;;;;;;;4.80;4.50;;;21.00;99.90;;;;;;4974363;28;20216;-66
2023/09/28 04:24:19;;;;;;;6.73;6.33;;;20.90;99.90;;;;;;4975661;28;20648;-66
2023/09/28 04:26:45;;;;;;;6.30;5.80;;;20.80;99.90;;;;;;4957332;28;20284;-66
2023/09/28 04:29:10;;;;;;;5.50;5.10;;;20.80;99.90;;;;;;4974484;28;20207;-67
2023/09/28 04:31:36;;;;;;;5.67;5.37;;;20.80;99.90;;;;;;4957765;28;20776;-66
2023/09/28 04:34:02;;;;;;;8.13;7.53;;;20.60;99.90;;;;;;4974541;28;20188;-67
2023/09/28 04:36:28;;;;;;;5.13;4.73;;;20.50;99.90;;;;;;4957656;28;20656;-67
2023/09/28 04:38:54;;;;;;;9.87;8.73;;;20.50;99.90;;;;;;4974301;28;20232;-65
2023/09/28 04:41:19;;;;;;;6.70;6.30;;;20.40;99.90;;;;;;4974985;28;20208;-65
2023/09/28 04:43:45;;;;;;;9.00;6.67;;;20.30;99.90;;;;;;4957138;28;20184;-67
2023/09/28 04:46:11;;;;;;;8.30;7.70;;;20.30;99.90;;;;;;4973747;28;20188;-67
2023/09/28 04:48:37;;;;;;;9.83;9.13;;;20.20;99.90;;;;;;4974582;28;20172;-67
2023/09/28 04:51:03;;;;;;;8.30;6.50;;;20.10;99.90;;;;;;4974036;28;20208;-67
2023/09/28 04:53:29;;;;;;;9.20;8.40;;;20.10;99.90;;;;;;4974041;28;20180;-66
2023/09/28 04:55:56;;;;;;;8.90;7.67;;;20.00;99.90;;;;;;4956385;28;20458;-65
2023/09/28 04:58:21;;;;;;;8.37;7.67;;;20.00;99.90;;;;;;4974450;28;20186;-65
2023/09/28 05:00:47;;;;;;;9.97;9.17;;;20.00;99.90;;;;;;4974165;28;20472;-65
2023/09/28 05:03:13;;;;;;;8.10;7.50;;;19.90;99.90;;;;;;4973553;28;20180;-65
2023/09/28 05:05:39;;;;;;;8.67;7.63;;;19.80;99.90;;;;;;4974668;28;20595;-66
2023/09/28 05:08:05;;;;;;;9.37;8.43;;;19.80;99.90;;;;;;4973356;28;21003;-64
2023/09/28 05:10:31;;;;;;;8.60;7.90;;;19.80;99.90;;;;;;4956773;28;20184;-67
2023/09/28 05:12:58;;;;;;;9.20;8.50;;;19.70;99.90;;;;;;4971806;28;20786;-66
2023/09/28 05:15:24;;;;;;;8.53;7.87;;;19.70;99.90;;;;;;4974131;28;20188;-66
2023/09/28 05:17:49;;;;;;;10.73;9.93;;;19.70;99.90;;;;;;4974444;28;20408;-66
2023/09/28 05:20:15;;;;;;;8.23;7.33;;;19.70;99.90;;;;;;4973320;28;20475;-67
2023/09/28 05:22:43;;;;;;;12.97;11.53;;;19.60;99.90;;;;;;4973968;28;20180;-67
2023/09/28 05:25:09;;;;;;;7.67;7.07;;;19.60;99.90;;;;;;4956511;28;20173;-67
2023/09/28 05:27:35;;;;;;;8.90;8.00;;;19.60;99.90;;;;;;4971250;28;20467;-68
2023/09/28 05:30:01;;;;;;;7.67;6.97;;;19.50;99.90;;;;;;4973312;28;20462;-67
2023/09/28 05:32:27;;;;;;;10.43;9.53;;;19.50;99.90;;;;;;4965203;28;20189;-66
2023/09/28 05:34:52;;;;;;;8.40;7.70;;;19.40;99.90;;;;;;4964997;28;20428;-68
2023/09/28 05:37:18;;;;;;;10.17;9.37;;;19.40;99.90;;;;;;4962182;28;20192;-68
2023/09/28 05:39:44;;;;;;;8.60;8.00;;;19.40;99.90;;;;;;4954776;29;20633;-68
2023/09/28 05:42:10;;;;;;;7.43;6.73;;;19.40;99.90;;;;;;4936695;29;20647;-68
2023/09/28 05:44:35;;;;;;;8.37;7.77;;;19.30;99.90;;;;;;4966921;28;20640;-68
2023/09/28 05:47:01;;;;;;;8.20;7.50;;;19.30;99.90;;;;;;4972239;28;20176;-68
2023/09/28 05:49:27;;;;;;;8.83;8.13;;;19.30;99.90;;;;;;4974064;28;20175;-68
2023/09/28 05:51:53;;;;;;;10.03;9.20;;;19.20;99.90;;;;;;4973584;28;20636;-69
2023/09/28 05:54:19;;;;;;;8.83;8.13;;;19.20;99.90;;;;;;4971899;28;20177;-72
2023/09/28 05:56:44;;;;;;;8.30;7.60;;;19.20;99.90;;;;;;4956161;28;20440;-73
2023/09/28 05:59:10;;;;;;;13.07;11.87;;;19.20;99.90;;;;;;4972686;28;20183;-72
2023/09/28 06:01:39;;;;;;;10.50;9.57;;;19.30;99.90;;;;;;4973274;28;20208;-72
2023/09/28 06:04:06;;;;;;;9.70;8.97;;;19.20;99.90;;;;;;4972738;28;20427;-73
2023/09/28 06:06:31;;;;;;;9.50;8.70;;;19.20;99.90;;;;;;4973779;28;20439;-72
2023/09/28 06:08:58;;;;;;;10.33;9.40;;;19.30;99.90;;;;;;4973784;28;20447;-72
2023/09/28 06:11:25;;;;;;;9.43;8.63;;;19.20;99.90;;;;;;4973285;28;20188;-72
2023/09/28 06:13:50;;;;;;;9.30;8.50;;;19.30;99.90;;;;;;4973314;28;20424;-72
2023/09/28 06:16:16;;;;;;;9.53;8.73;;;19.30;99.90;;;;;;4973381;28;20412;-72
2023/09/28 06:18:44;;;;;;;9.47;8.77;;;19.40;99.90;;;;;;4969988;28;20173;-72
2023/09/28 06:21:09;;;;;;;11.13;10.13;;;19.40;99.90;;;;;;4962811;28;20214;-73
2023/09/28 06:23:35;;;;;;;9.73;9.03;;;19.50;99.90;;;;;;4954389;28;20428;-70
2023/09/28 06:26:04;;;;;;;9.13;8.53;;;19.50;99.90;;;;;;4969137;28;20191;-71
2023/09/28 06:28:30;;;;;;;8.90;8.20;;;19.50;99.90;;;;;;4955405;28;20709;-70
2023/09/28 06:30:56;;;;;;;8.23;7.40;;;19.50;99.90;;;;;;4972704;28;20464;-74
2023/09/28 06:33:25;;;;;;;8.67;7.97;;;19.50;99.90;;;;;;4973826;28;20588;-75
2023/09/28 06:35:51;;;;;;;8.70;8.07;;;19.60;99.90;;;;;;4977022;28;20448;-74
2023/09/28 06:38:18;;;;;;;8.80;7.97;;;19.70;99.90;;;;;;4976434;28;20423;-75
2023/09/28 06:40:45;;;;;;;13.47;12.17;;;19.70;99.90;;;;;;4976630;28;20550;-76
2023/09/28 06:43:11;;;;;;;9.97;8.40;;;19.70;99.90;;;;;;4976413;28;20404;-68
2023/09/28 06:45:37;;;;;;;8.00;7.40;;;19.70;99.90;;;;;;4977193;28;20900;-70
2023/09/28 06:48:03;;;;;;;8.67;7.97;;;19.80;99.90;;;;;;4971708;28;20175;-77
2023/09/28 06:50:29;;;;;;;11.10;10.10;;;19.80;99.90;;;;;;4977201;28;20184;-74
2023/09/28 06:52:55;;;;;;;8.97;8.27;;;19.80;99.90;;;;;;4977140;28;20896;-76
2023/09/28 06:55:23;;;;;;;10.33;9.53;;;19.90;99.90;;;;;;4971604;28;20600;-74
2023/09/28 06:57:50;;;;;;;7.30;6.60;;;19.90;99.90;;;;;;4977187;28;20420;-74
2023/09/28 07:00:17;;;;;;;7.93;7.33;;;20.00;99.90;;;;;;4958721;28;20475;-75
2023/09/28 07:02:49;;;;;;;8.80;8.03;;;20.10;99.90;;;;;;4983150;28;20454;-73
2023/09/28 07:05:16;;;;;;;7.97;7.20;;;20.10;99.90;;;;;;4976325;28;20450;-72
2023/09/28 07:07:45;;;;;;;10.60;9.80;;;20.20;99.90;;;;;;4976660;28;20466;-73
2023/09/28 07:10:11;;;;;;;8.73;7.77;;;20.20;99.90;;;;;;4973270;28;20427;-71
2023/09/28 07:12:37;;;;;;;8.90;8.17;;;20.20;99.90;;;;;;4976169;28;20428;-70
2023/09/28 07:15:04;;;;;;;11.40;10.50;;;20.30;99.90;;;;;;4975723;28;20914;-71
2023/09/28 07:17:30;;;;;;;9.23;8.63;;;20.30;99.90;;;;;;4975670;28;20431;-73
2023/09/28 07:19:56;;;;;;;8.60;7.90;;;20.40;99.90;;;;;;4975927;28;20451;-73
2023/09/28 07:22:22;;;;;;;8.63;7.93;;;20.40;99.90;;;;;;4973193;28;20507;-72
2023/09/28 07:24:48;;;;;;;10.80;10.00;;;20.40;99.90;;;;;;4968579;28;20459;-73
2023/09/28 07:27:14;;;;;;;10.40;9.40;;;20.40;99.90;;;;;;4973825;28;20483;-71
2023/09/28 07:29:40;;;;;;;9.30;8.40;;;20.50;99.90;;;;;;4974734;28;20169;-71
2023/09/28 07:32:08;;;;;;;9.77;8.87;;;20.50;99.90;;;;;;4975741;28;20195;-70
2023/09/28 07:34:34;;;;;;;11.70;10.80;;;20.60;99.90;;;;;;4965931;28;20185;-71
2023/09/28 07:37:01;;;;;;;11.53;10.53;;;20.70;99.90;;;;;;4957061;28;20435;-71
2023/09/28 07:39:26;;;;;;;8.50;7.60;;;20.70;99.90;;;;;;4975393;28;20420;-71
2023/09/28 07:41:52;;;;;;;12.87;8.53;;;20.70;99.90;;;;;;4974884;28;20459;-73
2023/09/28 07:44:19;;;;;;;8.20;7.40;;;20.80;99.90;;;;;;4974764;28;20172;-71
2023/09/28 07:46:46;;;;;;;8.80;8.10;;;20.90;99.90;;;;;;4975760;28;20208;-71
2023/09/28 07:49:14;;;;;;;8.80;8.17;;;21.00;99.90;;;;;;4968631;28;20951;-71
2023/09/28 07:51:40;;;;;;;8.97;8.17;;;21.00;99.90;;;;;;4956532;28;20429;-70
2023/09/28 07:54:06;;;;;;;9.03;8.20;;;21.10;99.90;;;;;;4961525;28;20499;-64
2023/09/28 07:56:37;;;;;;;8.97;8.07;;;21.20;99.90;;;;;;4944008;29;21012;-71
2023/09/28 07:59:03;;;;;;;7.70;7.00;;;21.20;99.90;;;;;;4956296;28;20929;-71
2023/09/28 08:01:28;;;;;;;7.07;6.47;;;21.20;99.90;;;;;;4955853;29;20480;-71
2023/09/28 08:03:55;;;;;;;7.70;7.10;;;21.30;99.90;;;;;;4962378;28;20215;-70
2023/09/28 08:06:21;;;;;;;7.57;6.97;;;21.40;99.90;;;;;;4974420;28;20183;-71
2023/09/28 08:08:46;;;;;;;7.70;7.10;;;21.40;99.90;;;;;;4975138;28;20419;-70
2023/09/28 08:11:12;;;;;;;9.50;8.60;;;21.40;99.90;;;;;;4973178;28;20844;-70
2023/09/28 08:13:38;;;;;;;7.43;6.80;;;21.40;99.90;;;;;;4970804;28;20177;-71
2023/09/28 08:16:04;;;;;;;11.57;10.77;;;21.40;99.90;;;;;;4956001;28;20181;-68
2023/09/28 08:18:36;;;;;;;6.83;6.13;;;21.50;99.90;;;;;;4961529;28;20271;-69
2023/09/28 08:21:03;;;;;;;84.33;53.33;;;21.50;99.90;;;;;;4973881;28;20463;-69
2023/09/28 08:23:30;;;;;;;39.33;29.33;;;21.50;99.90;;;;;;4974816;28;20442;-69
2023/09/28 08:25:56;;;;;;;10.60;9.70;;;21.50;99.90;;;;;;4968230;28;20432;-69
2023/09/28 08:28:22;;;;;;;26.17;21.77;;;21.60;99.90;;;;;;4971147;28;20455;-69
2023/09/28 08:30:48;;;;;;;7.90;6.80;;;21.60;99.90;;;;;;4974893;28;20292;-69
2023/09/28 08:33:15;;;;;;;9.70;9.00;;;21.70;99.90;;;;;;4974475;28;20420;-68
2023/09/28 08:35:48;;;;;;;26.63;22.60;;;21.70;99.90;;;;;;4965855;28;20567;-68
2023/09/28 08:38:15;;;;;;;10.03;8.20;;;21.60;99.90;;;;;;4974421;28;20423;-68
2023/09/28 08:40:42;;;;;;;8.33;7.63;;;21.60;99.90;;;;;;4974558;28;20455;-68
2023/09/28 08:43:11;;;;;;;8.00;7.20;;;21.70;99.90;;;;;;4973864;28;20423;-64
2023/09/28 08:45:39;;;;;;;7.20;6.50;;;21.70;99.90;;;;;;4974980;28;20420;-68
2023/09/28 08:48:08;;;;;;;14.87;10.57;;;21.80;99.90;;;;;;4974370;28;20463;-69
2023/09/28 08:50:38;;;;;;;17.67;15.70;;;21.80;99.90;;;;;;4957109;28;20428;-70
2023/09/28 08:53:08;;;;;;;15.43;13.90;;;21.90;99.90;;;;;;4963519;28;20773;-70
2023/09/28 08:55:36;;;;;;;8.70;6.77;;;22.00;99.90;;;;;;4972382;28;20428;-72
2023/09/28 08:58:02;;;;;;;11.73;10.60;;;22.00;99.90;;;;;;4954883;28;20503;-72
2023/09/28 09:00:29;;;;;;;7.43;6.63;;;22.10;99.90;;;;;;4972978;28;20842;-72
2023/09/28 09:02:58;;;;;;;8.63;7.67;;;22.20;99.90;;;;;;4965736;28;20424;-72
2023/09/28 09:05:29;;;;;;;19.93;15.97;;;22.30;99.90;;;;;;4961046;28;20432;-73
2023/09/28 09:07:56;;;;;;;225.17;183.20;;;22.40;99.90;;;;;;4965527;28;20425;-73
2023/09/28 09:10:26;;;;;;;58.33;47.83;;;22.50;99.90;;;;;;4954704;29;20413;-72
2023/09/28 09:12:52;;;;;;;21.27;18.80;;;22.50;99.90;;;;;;4954979;29;20807;-72
2023/09/28 09:15:19;;;;;;;6.93;6.30;;;22.60;99.90;;;;;;4954644;29;20413;-72
2023/09/28 09:17:45;;;;;;;20.63;16.93;;;22.50;99.90;;;;;;4954989;29;20771;-72
2023/09/28 09:20:11;;;;;;;15.23;13.73;;;22.50;99.90;;;;;;4956972;28;20415;-71
2023/09/28 09:22:37;;;;;;;10.07;9.10;;;22.50;99.90;;;;;;4965331;28;20720;-71
2023/09/28 09:25:03;;;;;;;10.23;9.23;;;22.50;99.90;;;;;;4965292;28;20192;-71
2023/09/28 09:27:30;;;;;;;11.60;8.03;;;22.40;99.90;;;;;;4963243;28;20460;-72
2023/09/28 09:30:08;;;;;;;16.20;14.10;;;22.50;99.90;;;;;;4965941;28;20423;-72
2023/09/28 09:32:34;;;;;;;18.77;15.03;;;22.50;99.90;;;;;;4964170;28;20767;-73
2023/09/28 09:35:00;;;;;;;9.80;8.47;;;22.40;99.90;;;;;;4965825;28;20413;-72
2023/09/28 09:37:26;;;;;;;11.13;6.00;;;22.40;99.90;;;;;;4961456;28;20416;-72
2023/09/28 09:39:52;;;;;;;6.17;5.57;;;22.50;99.90;;;;;;4964313;28;20416;-72
2023/09/28 09:42:27;;;;;;;8.87;8.10;;;22.50;99.90;;;;;;4952900;28;20566;-71
2023/09/28 09:44:55;;;;;;;10.47;7.60;;;22.50;99.90;;;;;;4963618;28;20176;-71
2023/09/28 09:47:20;;;;;;;10.20;7.13;;;22.60;99.90;;;;;;4964704;28;20416;-72
2023/09/28 09:49:51;;;;;;;9.03;6.87;;;22.60;99.90;;;;;;4962999;28;20416;-71
2023/09/28 09:52:21;;;;;;;8.93;7.50;;;22.60;99.90;;;;;;4962356;28;20187;-71
2023/09/28 09:54:47;;;;;;;7.90;7.20;;;22.70;99.90;;;;;;4963569;28;20888;-72
2023/09/28 09:57:16;;;;;;;14.73;13.20;;;22.70;99.90;;;;;;4962708;28;20399;-71
2023/09/28 09:59:48;;;;;;;15.20;10.60;;;22.70;99.90;;;;;;4967832;28;20176;-71
2023/09/28 10:02:25;;;;;;;10.83;9.70;;;22.60;99.90;;;;;;4961658;28;20447;-71
2023/09/28 10:04:55;;;;;;;9.27;8.27;;;22.50;99.90;;;;;;4966544;28;20416;-72
2023/09/28 10:07:33;;;;;;;10.00;9.00;;;22.50;99.90;;;;;;4961332;28;20421;-72
2023/09/28 10:09:59;;;;;;;10.97;9.93;;;22.40;99.90;;;;;;4953397;28;20737;-72
2023/09/28 10:12:30;;;;;;;11.03;10.13;;;22.40;99.90;;;;;;4962188;28;20401;-73
2023/09/28 10:15:00;;;;;;;10.43;9.43;;;22.40;99.90;;;;;;4962764;28;20823;-71
2023/09/28 10:17:28;;;;;;;9.30;8.40;;;22.40;99.90;;;;;;4965389;28;20487;-70
2023/09/28 10:19:58;;;;;;;7.17;6.60;;;22.40;99.90;;;;;;4963011;28;20411;-71
2023/09/28 10:22:24;;;;;;;8.10;7.27;;;22.40;99.90;;;;;;4962607;28;20564;-70
2023/09/28 10:24:50;;;;;;;9.80;8.80;;;22.30;99.90;;;;;;4962683;28;20452;-72
2023/09/28 10:27:17;;;;;;;9.10;8.30;;;22.30;99.90;;;;;;4961887;28;20217;-71
2023/09/28 10:29:43;;;;;;;8.10;7.50;;;22.40;99.90;;;;;;4964702;28;20176;-71
2023/09/28 10:32:26;;;;;;;9.60;7.03;;;22.40;99.90;;;;;;4956948;28;20483;-72
2023/09/28 10:35:22;;;;;;;8.83;7.23;;;22.40;99.90;;;;;;4955096;28;20789;-72
2023/09/28 10:38:15;;;;;;;8.10;7.30;;;22.40;99.90;;;;;;4962890;28;20423;-72
2023/09/28 10:40:42;;;;;;;8.63;7.40;;;22.40;99.90;;;;;;4964434;28;20454;-72
2023/09/28 10:43:13;;;;;;;9.30;8.37;;;22.40;99.90;;;;;;4964240;28;20490;-72
2023/09/28 10:45:39;;;;;;;9.20;8.30;;;22.40;99.90;;;;;;4961345;28;20397;-72
2023/09/28 10:48:06;;;;;;;9.27;8.37;;;22.50;99.90;;;;;;4964971;28;20413;-73
2023/09/28 10:50:37;;;;;;;8.80;7.77;;;22.60;99.90;;;;;;4961174;28;20873;-72
2023/09/28 10:53:03;;;;;;;9.57;8.67;;;22.60;99.90;;;;;;4964346;28;20392;-71
2023/09/28 10:55:29;;;;;;;10.70;8.33;;;22.70;99.90;;;;;;4960014;28;20416;-73
2023/09/28 10:58:02;;;;;;;10.97;9.97;;;22.70;99.90;;;;;;4964751;28;20187;-72
2023/09/28 11:00:27;;;;;;;9.10;8.30;;;22.70;99.90;;;;;;4965712;28;20212;-72
2023/09/28 11:02:53;;;;;;;9.77;8.87;;;22.80;99.90;;;;;;4963654;28;20475;-71
2023/09/28 11:05:19;;;;;;;10.63;9.73;;;22.90;99.90;;;;;;4961406;28;20177;-71
2023/09/28 11:07:48;;;;;;;9.23;8.43;;;22.90;99.90;;;;;;4962674;28;20184;-72
2023/09/28 11:10:14;;;;;;;10.50;9.00;;;23.10;99.90;;;;;;4973284;28;20187;-73
2023/09/28 11:12:41;;;;;;;11.00;10.17;;;23.20;99.90;;;;;;4972613;28;20528;-72
2023/09/28 11:15:09;;;;;;;88.47;69.80;;;23.40;99.90;;;;;;4961708;28;20888;-72
2023/09/28 11:17:37;;;;;;;95.63;77.60;;;23.60;99.90;;;;;;4963286;28;20411;-71
2023/09/28 11:20:03;;;;;;;19.67;17.70;;;23.70;99.90;;;;;;4959383;28;20750;-62
2023/09/28 11:22:30;;;;;;;14.50;13.10;;;23.80;99.90;;;;;;4975905;28;20513;-62
2023/09/28 11:24:57;;;;;;;13.40;12.20;;;23.90;99.90;;;;;;4976496;28;20418;-63
2023/09/28 11:27:24;;;;;;;13.00;11.67;;;23.80;99.90;;;;;;4973156;28;20467;-63
2023/09/28 11:29:56;;;;;;;13.10;11.80;;;23.70;99.90;;;;;;4975947;28;20474;-63
2023/09/28 11:32:22;;;;;;;12.30;11.30;;;23.70;99.90;;;;;;4957922;28;20416;-65
2023/09/28 11:34:48;;;;;;;14.87;12.27;;;23.70;99.90;;;;;;4975854;28;20416;-65
2023/09/28 11:37:18;;;;;;;12.60;11.60;;;23.60;99.90;;;;;;4975638;28;20423;-67
2023/09/28 11:39:44;;;;;;;13.93;12.63;;;23.50;99.90;;;;;;4973276;28;20172;-63
2023/09/28 11:42:11;;;;;;;12.87;11.60;;;23.50;99.90;;;;;;4975816;28;20546;-63
2023/09/28 11:44:37;;;;;;;12.10;11.13;;;23.40;99.90;;;;;;4975118;28;20412;-63
2023/09/28 11:47:05;;;;;;;12.30;11.00;;;23.40;99.90;;;;;;4975101;28;20423;-63
2023/09/28 11:49:34;;;;;;;11.60;10.60;;;23.40;99.90;;;;;;4973980;28;20447;-64
2023/09/28 11:52:02;;;;;;;12.67;11.47;;;23.50;99.90;;;;;;4975438;28;20424;-63
2023/09/28 11:54:28;;;;;;;13.13;12.10;;;23.60;99.90;;;;;;4958012;28;20412;-63
2023/09/28 11:56:53;;;;;;;12.07;10.73;;;23.50;99.90;;;;;;4975592;28;20412;-63
2023/09/28 11:59:20;;;;;;;13.67;12.67;;;23.60;99.90;;;;;;4974778;28;20185;-64
2023/09/28 12:01:46;;;;;;;11.13;10.23;;;23.60;99.90;;;;;;4957879;28;20307;-64
2023/09/28 12:04:12;;;;;;;12.43;11.53;;;23.70;99.90;;;;;;4975378;28;20396;-64
2023/09/28 12:06:39;;;;;;;13.27;12.10;;;23.70;99.90;;;;;;4974351;28;20911;-64
2023/09/28 12:09:06;;;;;;;12.43;11.43;;;23.80;99.90;;;;;;4975254;28;20854;-64
2023/09/28 12:11:33;;;;;;;13.33;12.30;;;23.70;99.90;;;;;;4974700;28;20404;-64
2023/09/28 12:13:59;;;;;;;11.80;10.70;;;23.60;99.90;;;;;;4975164;28;20495;-66
2023/09/28 12:16:26;;;;;;;11.57;10.57;;;23.60;99.90;;;;;;4974988;28;20507;-63
2023/09/28 12:18:52;;;;;;;11.63;10.53;;;23.70;99.90;;;;;;4975392;28;20407;-63
2023/09/28 12:21:18;;;;;;;12.30;11.30;;;23.70;99.90;;;;;;4975210;28;20831;-63
2023/09/28 12:23:44;;;;;;;10.63;9.63;;;23.70;99.90;;;;;;4974929;28;20173;-63
2023/09/28 12:26:10;;;;;;;10.93;10.03;;;23.70;99.90;;;;;;4975359;28;20411;-63
2023/09/28 12:28:37;;;;;;;12.07;10.60;;;23.60;99.90;;;;;;4974211;28;20567;-65
2023/09/28 12:31:04;;;;;;;12.90;12.00;;;23.50;99.90;;;;;;4974533;28;20927;-63
2023/09/28 12:33:30;;;;;;;51.40;36.63;;;23.40;99.90;;;;;;4973029;28;20959;-63
2023/09/28 12:35:59;;;;;;;120.57;105.77;;;23.30;99.90;;;;;;4974264;28;20420;-63
2023/09/28 12:38:24;;;;;;;32.27;28.80;;;23.30;99.90;;;;;;4974587;28;20419;-63
2023/09/28 12:40:50;;;;;;;18.23;16.47;;;23.30;99.90;;;;;;4975094;28;21016;-63
2023/09/28 12:43:16;;;;;;;17.10;15.63;;;23.30;99.90;;;;;;4974816;28;20169;-63